createdAt,value
2017-07-09T00:00:56.827Z,99.90
2017-07-09T00:03:22.815Z,99.90
2017-07-09T00:05:48.798Z,99.90
2017-07-09T00:08:14.824Z,99.90
2017-07-09T00:10:40.804Z,99.90
2017-07-09T00:13:06.783Z,99.90
2017-07-09T00:15:32.832Z,99.90
2017-07-09T00:17:58.823Z,99.90
2017-07-09T00:20:25.552Z,99.90
2017-07-09T00:22:52.339Z,99.90
2017-07-09T00:25:18.315Z,99.90
2017-07-09T00:27:44.305Z,99.90
2017-07-09T00:30:11.079Z,99.90
2017-07-09T00:32:37.059Z,99.90
2017-07-09T00:35:03.082Z,99.90
2017-07-09T00:37:29.176Z,99.90
2017-07-09T00:39:55.160Z,99.90
2017-07-09T00:42:21.887Z,99.90
2017-07-09T00:44:48.683Z,99.90
2017-07-09T00:47:14.681Z,99.90
2017-07-09T00:49:40.676Z,99.90
2017-07-09T00:52:06.911Z,99.90
2017-07-09T00:54:32.907Z,99.90
2017-07-09T00:56:58.908Z,99.90
2017-07-09T00:59:24.920Z,99.90
2017-07-09T01:01:50.896Z,99.90
2017-07-09T01:04:16.915Z,99.90
2017-07-09T01:06:42.888Z,99.90
2017-07-09T01:09:08.871Z,99.90
2017-07-09T01:11:34.897Z,99.90
2017-07-09T01:14:00.896Z,99.90
2017-07-09T01:16:26.880Z,99.90
2017-07-09T01:18:52.904Z,99.90
2017-07-09T01:21:18.882Z,99.90
2017-07-09T01:23:44.864Z,99.90
2017-07-09T01:26:11.619Z,99.90
2017-07-09T01:28:37.592Z,99.90
2017-07-09T01:31:03.580Z,99.90
2017-07-09T01:33:29.612Z,99.90
2017-07-09T01:35:56.332Z,99.90
2017-07-09T01:38:22.311Z,99.90
2017-07-09T01:40:55.649Z,99.90
2017-07-09T01:43:21.693Z,99.90
2017-07-09T01:45:47.705Z,99.90
2017-07-09T01:48:13.744Z,99.90
2017-07-09T01:50:39.742Z,99.90
2017-07-09T01:53:05.719Z,99.90
2017-07-09T01:55:31.681Z,99.90
2017-07-09T01:57:57.668Z,99.90
2017-07-09T02:00:23.650Z,99.90
2017-07-09T02:02:49.647Z,99.90
2017-07-09T02:05:15.595Z,99.90
2017-07-09T02:07:41.543Z,99.90
2017-07-09T02:10:14.663Z,99.90
2017-07-09T02:12:40.623Z,99.90
2017-07-09T02:15:06.588Z,99.90
2017-07-09T02:17:39.485Z,99.90
2017-07-09T02:20:06.230Z,99.90
2017-07-09T02:22:32.198Z,99.90
2017-07-09T02:24:58.188Z,99.90
2017-07-09T02:27:24.183Z,99.90
2017-07-09T02:29:50.140Z,99.90
2017-07-09T02:32:16.830Z,99.90
2017-07-09T02:34:42.828Z,99.90
2017-07-09T02:37:08.787Z,99.90
2017-07-09T02:39:35.478Z,99.90
2017-07-09T02:42:01.488Z,99.90
2017-07-09T02:44:27.506Z,99.90
2017-07-09T02:46:53.447Z,99.90
2017-07-09T02:49:19.400Z,99.90
2017-07-09T02:51:45.401Z,99.90
2017-07-09T02:54:11.350Z,99.90
2017-07-09T02:56:37.338Z,99.90
2017-07-09T02:59:03.355Z,99.90
2017-07-09T03:01:29.327Z,99.90
2017-07-09T03:03:55.282Z,99.90
2017-07-09T03:06:21.271Z,99.90
2017-07-09T03:08:47.215Z,99.90
2017-07-09T03:11:13.906Z,99.90
2017-07-09T03:13:39.886Z,99.90
2017-07-09T03:16:05.835Z,99.90
2017-07-09T03:18:31.821Z,99.90
2017-07-09T03:20:57.844Z,99.90
2017-07-09T03:23:23.798Z,99.90
2017-07-09T03:25:49.752Z,99.90
2017-07-09T03:28:15.757Z,99.90
2017-07-09T03:30:41.767Z,99.90
2017-07-09T03:33:07.744Z,99.90
2017-07-09T03:35:33.738Z,99.90
2017-07-09T03:37:59.698Z,99.90
2017-07-09T03:40:25.647Z,99.90
2017-07-09T03:42:52.411Z,99.90
2017-07-09T03:45:18.360Z,99.90
2017-07-09T03:47:44.343Z,99.90
2017-07-09T03:50:10.326Z,99.90
2017-07-09T03:52:36.303Z,99.90
2017-07-09T03:55:02.322Z,99.90
2017-07-09T03:57:28.308Z,99.90
2017-07-09T03:59:55.013Z,99.90
2017-07-09T04:02:21.030Z,99.90
2017-07-09T04:04:46.982Z,99.90
2017-07-09T04:07:12.966Z,99.90
2017-07-09T04:09:39.691Z,99.90
2017-07-09T04:12:06.431Z,99.90
2017-07-09T04:14:32.401Z,99.90
2017-07-09T04:16:58.368Z,99.90
2017-07-09T04:19:24.384Z,99.90
2017-07-09T04:21:50.339Z,99.90
2017-07-09T04:24:16.290Z,99.90
2017-07-09T04:26:42.317Z,99.90
2017-07-09T04:29:08.244Z,99.90
2017-07-09T04:31:34.208Z,99.90
2017-07-09T04:34:00.226Z,99.90
2017-07-09T04:36:26.181Z,99.90
2017-07-09T04:38:52.135Z,99.90
2017-07-09T04:41:18.130Z,99.90
2017-07-09T04:43:44.087Z,99.90
2017-07-09T04:46:10.042Z,99.90
2017-07-09T04:48:36.782Z,99.90
2017-07-09T04:51:02.742Z,99.90
2017-07-09T04:53:28.727Z,99.90
2017-07-09T04:55:54.738Z,99.90
2017-07-09T04:58:20.686Z,99.90
2017-07-09T05:00:46.670Z,99.90
2017-07-09T05:03:12.668Z,99.90
2017-07-09T05:05:38.619Z,99.90
2017-07-09T05:08:05.323Z,99.90
2017-07-09T05:10:31.348Z,99.90
2017-07-09T05:12:57.316Z,99.90
2017-07-09T05:15:23.272Z,99.90
2017-07-09T05:17:50.061Z,99.90
2017-07-09T05:20:16.018Z,99.90
2017-07-09T05:22:42.710Z,99.90
2017-07-09T05:25:08.704Z,99.90
2017-07-09T05:27:34.654Z,99.90
2017-07-09T05:30:01.350Z,99.90
2017-07-09T05:32:27.343Z,99.90
2017-07-09T05:34:53.295Z,99.90
2017-07-09T05:37:19.995Z,99.90
2017-07-09T05:39:45.979Z,99.90
2017-07-09T05:42:11.966Z,99.90
2017-07-09T05:44:38.017Z,99.90
2017-07-09T05:47:03.993Z,99.90
2017-07-09T05:49:29.959Z,99.90
2017-07-09T05:51:56.735Z,99.90
2017-07-09T05:56:55.439Z,99.90
2017-07-09T05:59:21.496Z,99.90
2017-07-09T06:01:47.443Z,99.90
2017-07-09T06:04:13.438Z,99.90
2017-07-09T06:06:39.430Z,99.90
2017-07-09T06:09:05.427Z,99.90
2017-07-09T06:11:31.388Z,99.90
2017-07-09T06:13:57.346Z,99.90
2017-07-09T06:16:23.344Z,99.90
2017-07-09T06:18:49.287Z,99.90
2017-07-09T06:21:15.235Z,99.90
2017-07-09T06:23:41.234Z,99.90
2017-07-09T06:26:07.211Z,99.90
2017-07-09T06:28:33.174Z,99.90
2017-07-09T06:30:59.931Z,99.90
2017-07-09T06:33:25.938Z,99.90
2017-07-09T06:35:51.907Z,99.90
2017-07-09T06:38:18.679Z,99.90
2017-07-09T06:40:44.627Z,99.90
2017-07-09T06:43:14.419Z,99.90
2017-07-09T06:45:40.474Z,99.90
2017-07-09T06:48:06.433Z,99.90
2017-07-09T06:50:32.378Z,99.90
2017-07-09T06:52:58.376Z,99.90
2017-07-09T06:55:24.331Z,99.90
2017-07-09T06:57:50.290Z,99.90
2017-07-09T07:00:17.035Z,99.90
2017-07-09T07:02:43.031Z,99.90
2017-07-09T07:05:09.027Z,99.90
2017-07-09T07:07:35.710Z,99.90
2017-07-09T07:10:01.655Z,99.90
2017-07-09T07:12:28.394Z,99.90
2017-07-09T07:14:55.092Z,99.90
2017-07-09T07:17:21.055Z,99.90
2017-07-09T07:19:47.056Z,99.90
2017-07-09T07:22:13.058Z,99.90
2017-07-09T07:24:39.008Z,99.90
2017-07-09T07:27:04.959Z,99.90
2017-07-09T07:29:31.698Z,99.90
2017-07-09T07:31:57.652Z,99.90
2017-07-09T07:34:23.602Z,99.90
2017-07-09T07:36:50.366Z,99.90
2017-07-09T07:39:16.342Z,99.90
2017-07-09T07:41:43.067Z,99.90
2017-07-09T07:44:09.803Z,99.90
2017-07-09T07:46:35.746Z,99.90
2017-07-09T07:49:01.699Z,99.90
2017-07-09T07:51:27.680Z,99.90
2017-07-09T07:53:54.379Z,99.90
2017-07-09T07:56:20.375Z,99.90
2017-07-09T07:58:46.364Z,99.90
2017-07-09T08:01:12.315Z,99.90
2017-07-09T08:03:38.296Z,99.90
2017-07-09T08:06:04.239Z,99.90
2017-07-09T08:08:30.230Z,99.90
2017-07-09T08:10:56.183Z,99.90
2017-07-09T08:13:24.973Z,99.90
2017-07-09T08:15:50.969Z,99.90
2017-07-09T08:18:16.943Z,99.90
2017-07-09T08:20:42.922Z,99.90
2017-07-09T08:23:08.873Z,99.90
2017-07-09T08:25:35.586Z,99.90
2017-07-09T08:28:01.599Z,99.90
2017-07-09T08:30:27.545Z,99.90
2017-07-09T08:32:53.517Z,99.90
2017-07-09T08:35:20.250Z,99.90
2017-07-09T08:37:47.022Z,99.90
2017-07-09T08:40:12.969Z,99.90
2017-07-09T08:42:38.926Z,99.90
2017-07-09T08:45:04.914Z,99.90
2017-07-09T08:47:30.859Z,99.90
2017-07-09T08:49:56.845Z,99.90
2017-07-09T08:52:22.803Z,99.90
2017-07-09T08:54:48.790Z,99.90
2017-07-09T08:57:14.786Z,99.90
2017-07-09T08:59:40.753Z,99.90
2017-07-09T09:02:06.754Z,99.90
2017-07-09T09:04:33.432Z,99.90
2017-07-09T09:06:59.378Z,99.90
2017-07-09T09:09:26.137Z,99.90
2017-07-09T09:11:52.089Z,99.90
2017-07-09T09:14:18.134Z,99.90
2017-07-09T09:16:44.882Z,99.90
2017-07-09T09:19:10.890Z,99.90
2017-07-09T09:21:36.835Z,99.90
2017-07-09T09:24:02.829Z,99.90
2017-07-09T09:26:28.807Z,99.90
2017-07-09T09:28:54.750Z,99.90
2017-07-09T09:31:20.762Z,99.90
2017-07-09T09:33:46.730Z,99.90
2017-07-09T09:36:12.698Z,99.90
2017-07-09T09:38:38.683Z,99.90
2017-07-09T09:41:04.628Z,99.90
2017-07-09T09:43:30.618Z,99.90
2017-07-09T09:45:56.562Z,99.90
2017-07-09T09:48:22.549Z,99.90
2017-07-09T09:50:48.581Z,99.90
2017-07-09T09:53:14.565Z,99.90
2017-07-09T09:55:40.538Z,99.90
2017-07-09T09:58:07.225Z,99.90
2017-07-09T10:00:33.245Z,99.90
2017-07-09T10:02:59.202Z,99.90
2017-07-09T10:05:25.151Z,99.90
2017-07-09T10:07:51.142Z,99.90
2017-07-09T10:10:17.082Z,99.90
2017-07-09T10:12:43.076Z,99.90
2017-07-09T10:15:09.026Z,99.90
2017-07-09T10:17:35.714Z,99.90
2017-07-09T10:20:01.714Z,99.90
2017-07-09T10:22:27.690Z,99.90
2017-07-09T10:24:53.642Z,99.90
2017-07-09T10:27:19.622Z,99.90
2017-07-09T10:29:45.565Z,99.90
2017-07-09T10:32:11.558Z,99.90
2017-07-09T10:34:37.549Z,99.90
2017-07-09T10:37:03.506Z,99.90
2017-07-09T10:39:29.491Z,99.90
2017-07-09T10:41:55.442Z,99.90
2017-07-09T10:44:22.173Z,99.90
2017-07-09T10:46:48.122Z,99.90
2017-07-09T10:49:14.817Z,99.90
2017-07-09T10:51:40.806Z,99.90
2017-07-09T10:54:06.749Z,99.90
2017-07-09T10:56:32.818Z,99.90
2017-07-09T10:58:58.766Z,99.90
2017-07-09T11:01:25.512Z,99.90
2017-07-09T11:03:51.502Z,99.90
2017-07-09T11:06:17.461Z,99.90
2017-07-09T11:08:43.441Z,99.90
2017-07-09T11:11:09.429Z,99.90
2017-07-09T11:13:36.159Z,99.90
2017-07-09T11:16:02.105Z,99.90
2017-07-09T11:18:28.050Z,99.90
2017-07-09T11:20:54.054Z,99.90
2017-07-09T11:23:20.064Z,99.90
2017-07-09T11:25:46.023Z,99.90
2017-07-09T11:28:12.003Z,99.90
2017-07-09T11:30:38.737Z,99.90
2017-07-09T11:33:05.417Z,99.90
2017-07-09T11:35:31.365Z,99.90
2017-07-09T11:37:58.074Z,99.90
2017-07-09T11:40:24.013Z,99.90
2017-07-09T11:42:50.002Z,99.90
2017-07-09T11:45:15.963Z,99.90
2017-07-09T11:47:42.685Z,99.90
2017-07-09T11:50:08.621Z,99.90
2017-07-09T11:52:34.600Z,99.90
2017-07-09T11:55:01.297Z,99.90
2017-07-09T11:57:27.281Z,99.90
2017-07-09T11:59:53.277Z,99.90
2017-07-09T12:02:19.253Z,99.90
2017-07-09T12:04:45.942Z,99.90
2017-07-09T12:07:11.919Z,99.90
2017-07-09T12:09:37.873Z,99.90
2017-07-09T12:12:03.853Z,99.90
2017-07-09T12:14:29.798Z,99.90
2017-07-09T12:16:56.530Z,99.90
2017-07-09T12:19:23.221Z,99.90
2017-07-09T12:21:49.186Z,99.90
2017-07-09T12:24:15.173Z,99.90
2017-07-09T12:26:41.874Z,99.90
2017-07-09T12:29:07.844Z,99.90
2017-07-09T12:31:33.821Z,99.90
2017-07-09T12:33:59.815Z,99.90
2017-07-09T12:36:25.759Z,99.90
2017-07-09T12:38:51.750Z,99.90
2017-07-09T12:41:17.730Z,99.90
2017-07-09T12:43:43.669Z,99.90
2017-07-09T12:46:09.726Z,99.90
2017-07-09T12:48:35.678Z,99.90
2017-07-09T12:51:02.407Z,99.90
2017-07-09T12:53:28.386Z,99.90
2017-07-09T12:55:54.341Z,94.70
2017-07-09T12:58:20.357Z,91.20
2017-07-09T13:00:47.118Z,83.40
2017-07-09T13:03:13.057Z,77.70
2017-07-09T13:05:39.742Z,73.10
2017-07-09T13:08:05.777Z,73.60
2017-07-09T13:10:31.754Z,69.20
2017-07-09T13:12:57.698Z,66.40
2017-07-09T13:15:23.741Z,64.80
2017-07-09T13:17:49.698Z,60.20
2017-07-09T13:20:15.629Z,59.20
2017-07-09T13:22:41.603Z,59.90
2017-07-09T13:25:07.549Z,60.20
2017-07-09T13:27:33.516Z,62.30
2017-07-09T13:29:59.462Z,64.30
2017-07-09T13:32:25.438Z,64.30
2017-07-09T13:34:51.394Z,66.10
2017-07-09T13:37:18.107Z,67.80
2017-07-09T13:39:44.083Z,67.90
2017-07-09T13:42:10.038Z,66.90
2017-07-09T13:44:36.754Z,65.60
2017-07-09T13:47:03.439Z,63.50
2017-07-09T13:49:30.126Z,66.10
2017-07-09T13:51:56.104Z,66.00
2017-07-09T13:54:22.062Z,61.10
2017-07-09T13:56:48.082Z,61.70
2017-07-09T13:59:14.789Z,62.90
2017-07-09T14:01:40.790Z,63.00
2017-07-09T14:04:06.762Z,61.80
2017-07-09T14:06:34.324Z,57.10
2017-07-09T14:09:01.002Z,52.80
2017-07-09T14:11:27.694Z,51.90
2017-07-09T14:13:53.658Z,51.90
2017-07-09T14:16:19.658Z,48.50
2017-07-09T14:18:45.605Z,49.00
2017-07-09T14:21:11.656Z,50.70
2017-07-09T14:23:37.606Z,51.70
2017-07-09T14:26:03.545Z,51.40
2017-07-09T14:28:29.533Z,48.50
2017-07-09T14:30:55.475Z,48.40
2017-07-09T14:33:21.466Z,48.60
2017-07-09T14:35:47.438Z,48.40
2017-07-09T14:38:13.381Z,49.00
2017-07-09T14:40:39.350Z,50.30
2017-07-09T14:43:05.303Z,48.00
2017-07-09T14:45:31.279Z,48.80
2017-07-09T14:47:57.970Z,48.00
2017-07-09T14:50:23.963Z,47.90
2017-07-09T14:52:49.929Z,47.20
2017-07-09T14:55:15.870Z,47.60
2017-07-09T14:57:41.847Z,48.00
2017-07-09T15:00:08.544Z,45.70
2017-07-09T15:02:34.622Z,45.70
2017-07-09T15:05:00.610Z,47.10
2017-07-09T15:07:26.554Z,45.40
2017-07-09T15:09:52.591Z,46.00
2017-07-09T15:12:18.562Z,46.10
2017-07-09T15:14:44.515Z,48.80
2017-07-09T15:17:11.221Z,49.00
2017-07-09T15:19:37.198Z,49.00
2017-07-09T15:22:03.188Z,49.50
2017-07-09T15:24:29.142Z,49.90
2017-07-09T15:26:55.205Z,50.90
2017-07-09T15:29:21.221Z,50.80
2017-07-09T15:31:47.174Z,51.90
2017-07-09T15:34:13.134Z,53.00
2017-07-09T15:36:39.122Z,52.80
2017-07-09T15:39:05.824Z,52.90
2017-07-09T15:41:31.814Z,52.90
2017-07-09T15:43:57.770Z,52.20
2017-07-09T15:46:24.098Z,53.00
2017-07-09T15:48:50.082Z,54.60
2017-07-09T15:51:16.038Z,54.30
2017-07-09T15:53:42.042Z,54.20
2017-07-09T15:56:08.005Z,54.50
2017-07-09T15:58:34.734Z,54.10
2017-07-09T16:01:00.745Z,54.00
2017-07-09T16:03:26.792Z,54.70
2017-07-09T16:05:52.770Z,55.70
2017-07-09T16:08:18.769Z,55.60
2017-07-09T16:10:44.718Z,54.80
2017-07-09T16:13:10.690Z,56.10
2017-07-09T16:15:36.678Z,54.80
2017-07-09T16:18:03.423Z,58.30
2017-07-09T16:20:29.369Z,58.30
2017-07-09T16:22:55.352Z,58.00
2017-07-09T16:25:21.347Z,59.10
2017-07-09T16:27:47.295Z,59.20
2017-07-09T16:30:13.285Z,59.00
2017-07-09T16:32:39.297Z,60.90
2017-07-09T16:35:05.302Z,64.00
2017-07-09T16:37:31.250Z,65.80
2017-07-09T16:39:57.222Z,66.80
2017-07-09T16:42:23.202Z,68.20
2017-07-09T16:44:49.221Z,69.30
2017-07-09T16:47:15.169Z,68.20
2017-07-09T16:49:41.122Z,70.10
2017-07-09T16:52:07.088Z,70.50
2017-07-09T16:54:33.030Z,72.20
2017-07-09T16:56:58.973Z,72.00
2017-07-09T16:59:25.725Z,74.00
2017-07-09T17:01:51.723Z,73.90
2017-07-09T17:04:17.675Z,74.20
2017-07-09T17:06:43.626Z,75.20
2017-07-09T17:09:09.626Z,74.80
2017-07-09T17:11:36.334Z,74.70
2017-07-09T17:14:02.309Z,74.70
2017-07-09T17:16:28.285Z,74.50
2017-07-09T17:18:54.246Z,74.90
2017-07-09T17:21:20.279Z,75.20
2017-07-09T17:23:46.225Z,76.50
2017-07-09T17:26:12.167Z,76.90
2017-07-09T17:28:38.157Z,77.30
2017-07-09T17:31:04.102Z,76.80
2017-07-09T17:33:30.058Z,77.00
2017-07-09T17:35:56.026Z,77.00
2017-07-09T17:38:21.983Z,77.80
2017-07-09T17:40:47.949Z,78.00
2017-07-09T17:43:14.634Z,78.20
2017-07-09T17:45:40.615Z,77.30
2017-07-09T17:48:06.561Z,79.40
2017-07-09T17:50:32.550Z,79.60
2017-07-09T17:52:58.506Z,81.10
2017-07-09T17:55:25.234Z,83.70
2017-07-09T17:57:51.975Z,82.40
2017-07-09T18:00:18.674Z,83.10
2017-07-09T18:02:44.654Z,83.10
2017-07-09T18:05:10.638Z,84.70
2017-07-09T18:07:36.618Z,85.10
2017-07-09T18:10:02.583Z,85.60
2017-07-09T18:12:28.558Z,85.70
2017-07-09T18:14:54.515Z,86.40
2017-07-09T18:17:20.521Z,87.30
2017-07-09T18:19:46.458Z,87.50
2017-07-09T18:22:13.169Z,89.70
2017-07-09T18:24:39.117Z,89.60
2017-07-09T18:27:05.113Z,90.00
2017-07-09T18:29:31.814Z,92.90
2017-07-09T18:31:57.798Z,93.00
2017-07-09T18:34:23.746Z,96.50
2017-07-09T18:36:50.447Z,99.90
2017-07-09T18:39:16.418Z,99.90
2017-07-09T18:41:42.357Z,99.90
2017-07-09T18:44:08.334Z,99.90
2017-07-09T18:46:34.276Z,99.90
2017-07-09T18:49:01.002Z,99.90
2017-07-09T18:51:27.700Z,99.90
2017-07-09T18:53:53.650Z,99.90
2017-07-09T18:56:19.647Z,99.90
2017-07-09T18:58:45.624Z,99.90
2017-07-09T19:01:11.613Z,99.90
2017-07-09T19:03:37.550Z,99.90
2017-07-09T19:06:03.497Z,99.90
2017-07-09T19:08:29.463Z,99.90
2017-07-09T19:10:55.434Z,99.90
2017-07-09T19:13:21.433Z,99.90
2017-07-09T19:15:47.378Z,99.90
2017-07-09T19:18:13.358Z,99.90
2017-07-09T19:20:39.307Z,99.90
2017-07-09T19:23:05.273Z,99.90
2017-07-09T19:25:31.253Z,99.90
2017-07-09T19:27:57.959Z,99.90
2017-07-09T19:30:23.941Z,99.90
2017-07-09T19:32:49.925Z,99.90
2017-07-09T19:35:15.905Z,99.90
2017-07-09T19:37:42.598Z,99.90
2017-07-09T19:40:08.590Z,99.90
2017-07-09T19:42:34.526Z,99.90
2017-07-09T19:45:00.470Z,99.90
2017-07-09T19:47:26.450Z,99.90
2017-07-09T19:49:53.136Z,99.90
2017-07-09T19:52:19.127Z,99.90
2017-07-09T19:54:45.150Z,99.90
2017-07-09T19:57:11.090Z,99.90
2017-07-09T20:02:10.620Z,99.90
2017-07-09T20:04:36.606Z,99.90
2017-07-09T20:07:02.574Z,99.90
2017-07-09T20:09:28.529Z,99.90
2017-07-09T20:11:54.501Z,99.90
2017-07-09T20:14:20.466Z,99.90
2017-07-09T20:16:46.459Z,99.90
2017-07-09T20:19:12.409Z,99.90
2017-07-09T20:21:38.404Z,99.90
2017-07-09T20:24:04.361Z,99.90
2017-07-09T20:26:31.063Z,99.90
2017-07-09T20:28:57.046Z,99.90
2017-07-09T20:31:23.021Z,99.90
2017-07-09T20:33:48.986Z,99.90
2017-07-09T20:36:14.929Z,99.90
2017-07-09T20:38:41.654Z,99.90
2017-07-09T20:41:07.605Z,99.90
2017-07-09T20:43:33.606Z,99.90
2017-07-09T20:45:59.625Z,99.90
2017-07-09T20:48:25.645Z,99.90
2017-07-09T20:50:51.690Z,99.90
2017-07-09T20:53:18.391Z,99.90
2017-07-09T20:55:44.358Z,99.90
2017-07-09T20:58:10.374Z,99.90
2017-07-09T21:00:36.321Z,99.90
2017-07-09T21:03:02.329Z,99.90
2017-07-09T21:05:28.310Z,99.90
2017-07-09T21:07:54.282Z,99.90
2017-07-09T21:10:20.326Z,99.90
2017-07-09T21:12:46.322Z,99.90
2017-07-09T21:15:12.271Z,99.90
2017-07-09T21:17:38.246Z,99.90
2017-07-09T21:20:04.229Z,99.90
2017-07-09T21:22:30.161Z,99.90
2017-07-09T21:24:56.142Z,99.90
2017-07-09T21:27:22.095Z,99.90
2017-07-09T21:29:48.091Z,99.90
2017-07-09T21:32:14.035Z,99.90
2017-07-09T21:34:39.991Z,99.90
2017-07-09T21:37:05.963Z,99.90
2017-07-09T21:39:31.905Z,99.90
2017-07-09T21:41:57.917Z,99.90
2017-07-09T21:44:23.871Z,99.90
2017-07-09T21:46:49.838Z,99.90
2017-07-09T21:49:15.818Z,99.90
2017-07-09T21:51:42.507Z,99.90
2017-07-09T21:54:08.497Z,99.90
2017-07-09T21:56:34.432Z,99.90
2017-07-09T21:59:00.429Z,99.90
2017-07-09T22:01:26.444Z,99.90
2017-07-09T22:03:52.385Z,99.90
2017-07-09T22:06:19.121Z,99.90
2017-07-09T22:08:45.066Z,99.90
2017-07-09T22:11:11.089Z,99.90
2017-07-09T22:13:37.110Z,99.90
2017-07-09T22:16:03.092Z,99.90
2017-07-09T22:18:29.033Z,99.90
2017-07-09T22:20:55.029Z,99.90
2017-07-09T22:23:20.985Z,99.90
2017-07-09T22:25:46.986Z,99.90
2017-07-09T22:28:12.934Z,99.90
2017-07-09T22:30:38.886Z,99.90
2017-07-09T22:33:05.603Z,99.90
2017-07-09T22:35:31.553Z,99.90
2017-07-09T22:37:57.554Z,99.90
2017-07-09T22:40:23.499Z,99.90
2017-07-09T22:42:49.438Z,99.90
2017-07-09T22:45:15.419Z,99.90
2017-07-09T22:47:41.410Z,99.90
2017-07-09T22:50:07.362Z,99.90
2017-07-09T22:52:33.313Z,99.90
2017-07-09T22:54:59.290Z,99.90
2017-07-09T22:57:25.239Z,99.90
2017-07-09T22:59:51.366Z,99.90
2017-07-09T23:02:18.049Z,99.90
2017-07-09T23:04:44.026Z,99.90
2017-07-09T23:07:09.973Z,99.90
2017-07-09T23:09:35.958Z,99.90
2017-07-09T23:12:01.975Z,99.90
2017-07-09T23:14:27.966Z,99.90
2017-07-09T23:16:53.934Z,99.90
2017-07-09T23:19:19.934Z,99.90
2017-07-09T23:21:45.901Z,99.90
2017-07-09T23:24:11.886Z,99.90
2017-07-09T23:26:37.866Z,99.90
2017-07-09T23:29:03.827Z,99.90
2017-07-09T23:31:29.805Z,99.90
2017-07-09T23:33:56.492Z,99.90
2017-07-09T23:36:22.473Z,99.90
2017-07-09T23:38:48.428Z,99.90
2017-07-09T23:41:14.375Z,99.90
2017-07-09T23:43:40.361Z,99.90
2017-07-09T23:46:06.350Z,99.90
2017-07-09T23:48:32.328Z,99.90
2017-07-09T23:50:58.273Z,99.90
2017-07-09T23:53:24.259Z,99.90
2017-07-09T23:55:50.221Z,99.90
2017-07-09T23:58:16.235Z,99.90
